createdAt,value
2017-09-01T00:00:16.635Z,18.63
2017-09-01T00:00:57.197Z,18.65
2017-09-01T00:01:37.770Z,18.6
2017-09-01T00:02:18.374Z,18.63
2017-09-01T00:02:58.941Z,18.68
2017-09-01T00:03:39.509Z,18.63
2017-09-01T00:04:20.072Z,18.66
2017-09-01T00:05:00.650Z,18.55
2017-09-01T00:05:41.209Z,18.6
2017-09-01T00:06:21.805Z,18.59
2017-09-01T00:07:02.374Z,18.53
2017-09-01T00:07:42.955Z,18.55
2017-09-01T00:08:23.536Z,18.6
2017-09-01T00:09:04.121Z,18.55
2017-09-01T00:09:44.707Z,18.62
2017-09-01T00:10:25.300Z,18.62
2017-09-01T00:11:05.869Z,18.55
2017-09-01T00:11:46.457Z,18.5
2017-09-01T00:12:27.049Z,18.53
2017-09-01T00:13:07.590Z,18.58
2017-09-01T00:13:48.170Z,18.5
2017-09-01T00:14:28.736Z,18.47
2017-09-01T00:15:09.313Z,18.44
2017-09-01T00:15:49.872Z,18.43
2017-09-01T00:16:30.456Z,18.47
2017-09-01T00:17:11.026Z,18.43
2017-09-01T00:17:51.598Z,18.43
2017-09-01T00:18:32.178Z,18.44
2017-09-01T00:19:12.736Z,18.37
2017-09-01T00:19:53.315Z,18.43
2017-09-01T00:20:36.670Z,18.37
2017-09-01T00:21:17.240Z,18.35
2017-09-01T00:21:57.808Z,18.38
2017-09-01T00:22:38.393Z,18.34
2017-09-01T00:23:18.955Z,18.38
2017-09-01T00:23:59.519Z,18.38
2017-09-01T00:24:40.084Z,18.47
2017-09-01T00:25:20.665Z,18.38
2017-09-01T00:26:01.238Z,18.4
2017-09-01T00:26:41.818Z,18.49
2017-09-01T00:27:22.399Z,18.4
2017-09-01T00:28:02.962Z,18.34
2017-09-01T00:28:43.546Z,18.43
2017-09-01T00:29:24.124Z,18.4
2017-09-01T00:30:04.715Z,18.34
2017-09-01T00:30:45.289Z,18.35
2017-09-01T00:31:25.902Z,18.28
2017-09-01T00:32:06.494Z,18.35
2017-09-01T00:32:47.082Z,18.15
2017-09-01T00:33:27.649Z,18.22
2017-09-01T00:34:08.224Z,18.2
2017-09-01T00:34:48.801Z,18.18
2017-09-01T00:35:29.378Z,18.05
2017-09-01T00:36:09.973Z,18.01
2017-09-01T00:36:50.539Z,18.08
2017-09-01T00:37:31.111Z,18
2017-09-01T00:38:11.708Z,17.95
2017-09-01T00:38:52.268Z,17.97
2017-09-01T00:39:32.880Z,17.94
2017-09-01T00:40:13.445Z,17.89
2017-09-01T00:40:54.017Z,17.87
2017-09-01T00:41:34.586Z,17.87
2017-09-01T00:42:15.170Z,17.89
2017-09-01T00:42:55.749Z,17.87
2017-09-01T00:43:36.317Z,17.87
2017-09-01T00:44:16.889Z,17.95
2017-09-01T00:44:57.464Z,17.95
2017-09-01T00:45:38.040Z,17.94
2017-09-01T00:46:18.605Z,17.86
2017-09-01T00:46:59.184Z,17.86
2017-09-01T00:47:39.781Z,17.92
2017-09-01T00:48:20.387Z,17.85
2017-09-01T00:49:00.956Z,17.87
2017-09-01T00:49:41.529Z,17.95
2017-09-01T00:50:22.104Z,17.87
2017-09-01T00:51:02.684Z,17.8
2017-09-01T00:51:43.255Z,17.89
2017-09-01T00:52:23.831Z,17.92
2017-09-01T00:53:04.401Z,17.94
2017-09-01T00:53:44.989Z,17.83
2017-09-01T00:54:25.553Z,17.89
2017-09-01T00:55:06.138Z,17.8
2017-09-01T00:55:46.741Z,17.82
2017-09-01T00:56:27.333Z,17.86
2017-09-01T00:57:07.970Z,17.79
2017-09-01T00:57:48.524Z,17.72
2017-09-01T00:58:29.101Z,17.72
2017-09-01T00:59:09.668Z,17.71
2017-09-01T00:59:50.260Z,17.76
2017-09-01T01:00:30.864Z,17.78
2017-09-01T01:01:11.451Z,17.74
2017-09-01T01:01:52.036Z,17.72
2017-09-01T01:02:32.661Z,17.74
2017-09-01T01:03:13.236Z,17.68
2017-09-01T01:03:53.806Z,17.72
2017-09-01T01:04:34.382Z,17.65
2017-09-01T01:05:15.010Z,17.56
2017-09-01T01:05:55.577Z,17.56
2017-09-01T01:06:36.151Z,17.54
2017-09-01T01:07:16.721Z,17.59
2017-09-01T01:07:57.297Z,17.57
2017-09-01T01:08:37.881Z,17.67
2017-09-01T01:09:18.514Z,17.56
2017-09-01T01:09:59.053Z,17.65
2017-09-01T01:10:39.646Z,17.57
2017-09-01T01:11:20.219Z,17.68
2017-09-01T01:12:00.804Z,17.78
2017-09-01T01:12:41.384Z,17.68
2017-09-01T01:13:21.957Z,17.71
2017-09-01T01:14:02.525Z,17.82
2017-09-01T01:14:43.093Z,17.79
2017-09-01T01:15:23.669Z,17.79
2017-09-01T01:16:04.239Z,17.74
2017-09-01T01:16:44.835Z,17.72
2017-09-01T01:17:25.419Z,17.72
2017-09-01T01:18:06.000Z,17.85
2017-09-01T01:18:46.584Z,17.76
2017-09-01T01:19:27.151Z,17.72
2017-09-01T01:20:07.729Z,17.78
2017-09-01T01:20:48.319Z,17.79
2017-09-01T01:21:28.903Z,17.71
2017-09-01T01:22:09.455Z,17.72
2017-09-01T01:22:50.033Z,17.78
2017-09-01T01:23:30.617Z,17.78
2017-09-01T01:24:11.183Z,17.76
2017-09-01T01:24:51.742Z,17.72
2017-09-01T01:25:32.312Z,17.72
2017-09-01T01:26:12.883Z,17.74
2017-09-01T01:26:53.467Z,17.64
2017-09-01T01:27:34.052Z,17.74
2017-09-01T01:28:14.630Z,17.71
2017-09-01T01:28:55.208Z,17.74
2017-09-01T01:29:35.778Z,17.68
2017-09-01T01:30:16.361Z,17.71
2017-09-01T01:30:56.928Z,17.74
2017-09-01T01:31:37.504Z,17.74
2017-09-01T01:32:18.072Z,17.74
2017-09-01T01:32:58.658Z,17.8
2017-09-01T01:33:39.234Z,17.79
2017-09-01T01:34:19.820Z,17.72
2017-09-01T01:35:00.452Z,17.74
2017-09-01T01:35:41.025Z,17.72
2017-09-01T01:36:21.586Z,17.78
2017-09-01T01:37:02.168Z,17.76
2017-09-01T01:37:42.739Z,17.68
2017-09-01T01:38:23.293Z,17.68
2017-09-01T01:39:03.866Z,17.7
2017-09-01T01:39:44.446Z,17.72
2017-09-01T01:40:25.017Z,17.7
2017-09-01T01:41:05.613Z,17.76
2017-09-01T01:41:46.191Z,17.71
2017-09-01T01:42:26.757Z,17.7
2017-09-01T01:43:07.334Z,17.71
2017-09-01T01:43:47.903Z,17.74
2017-09-01T01:44:28.491Z,17.78
2017-09-01T01:45:09.066Z,17.72
2017-09-01T01:45:49.642Z,17.74
2017-09-01T01:46:30.224Z,17.67
2017-09-01T01:47:10.791Z,17.71
2017-09-01T01:47:51.359Z,17.76
2017-09-01T01:48:31.927Z,17.72
2017-09-01T01:49:12.491Z,17.67
2017-09-01T01:49:53.083Z,17.74
2017-09-01T01:50:33.640Z,17.78
2017-09-01T01:51:14.253Z,17.7
2017-09-01T01:51:54.823Z,17.76
2017-09-01T01:52:35.393Z,17.68
2017-09-01T01:53:16.002Z,17.68
2017-09-01T01:53:56.607Z,17.56
2017-09-01T01:54:37.164Z,17.57
2017-09-01T01:55:17.743Z,17.6
2017-09-01T01:55:58.309Z,17.59
2017-09-01T01:56:38.888Z,17.59
2017-09-01T01:57:19.465Z,17.57
2017-09-01T01:58:00.054Z,17.59
2017-09-01T01:58:40.616Z,17.6
2017-09-01T01:59:21.183Z,17.56
2017-09-01T02:00:01.744Z,17.63
2017-09-01T02:00:42.358Z,17.65
2017-09-01T02:01:22.947Z,17.57
2017-09-01T02:02:03.511Z,17.57
2017-09-01T02:02:44.116Z,17.57
2017-09-01T02:03:24.704Z,17.52
2017-09-01T02:04:05.285Z,17.6
2017-09-01T02:04:45.892Z,17.57
2017-09-01T02:05:26.434Z,17.52
2017-09-01T02:06:07.061Z,17.67
2017-09-01T02:06:47.627Z,17.63
2017-09-01T02:07:28.187Z,17.63
2017-09-01T02:08:08.751Z,17.65
2017-09-01T02:08:49.328Z,17.64
2017-09-01T02:09:29.902Z,17.63
2017-09-01T02:10:10.481Z,17.65
2017-09-01T02:10:51.086Z,17.67
2017-09-01T02:11:31.682Z,17.64
2017-09-01T02:12:12.253Z,17.59
2017-09-01T02:12:52.850Z,17.64
2017-09-01T02:13:33.437Z,17.64
2017-09-01T02:14:14.007Z,17.64
2017-09-01T02:14:54.576Z,17.54
2017-09-01T02:15:35.159Z,17.52
2017-09-01T02:16:15.737Z,17.45
2017-09-01T02:16:56.316Z,17.51
2017-09-01T02:17:36.883Z,17.49
2017-09-01T02:18:17.456Z,17.51
2017-09-01T02:18:58.066Z,17.45
2017-09-01T02:19:38.624Z,17.42
2017-09-01T02:20:19.189Z,17.51
2017-09-01T02:20:59.769Z,17.45
2017-09-01T02:21:40.344Z,17.46
2017-09-01T02:22:20.947Z,17.49
2017-09-01T02:23:01.545Z,17.44
2017-09-01T02:23:42.119Z,17.42
2017-09-01T02:24:22.679Z,17.42
2017-09-01T02:25:03.245Z,17.36
2017-09-01T02:25:43.832Z,17.42
2017-09-01T02:26:24.411Z,17.31
2017-09-01T02:27:04.971Z,17.42
2017-09-01T02:27:45.533Z,17.33
2017-09-01T02:28:26.133Z,17.36
2017-09-01T02:29:06.712Z,17.33
2017-09-01T02:29:47.277Z,17.2
2017-09-01T02:30:27.849Z,17.19
2017-09-01T02:31:08.451Z,17.22
2017-09-01T02:31:49.014Z,17.26
2017-09-01T02:32:29.585Z,17.16
2017-09-01T02:33:10.165Z,17.23
2017-09-01T02:33:50.742Z,17.24
2017-09-01T02:34:31.311Z,17.22
2017-09-01T02:35:11.886Z,17.24
2017-09-01T02:35:52.468Z,17.24
2017-09-01T02:36:33.039Z,17.19
2017-09-01T02:37:13.646Z,17.22
2017-09-01T02:37:54.255Z,17.2
2017-09-01T02:38:34.824Z,17.22
2017-09-01T02:39:15.402Z,17.23
2017-09-01T02:39:55.997Z,17.29
2017-09-01T02:40:36.571Z,17.24
2017-09-01T02:41:17.123Z,17.22
2017-09-01T02:41:57.717Z,17.24
2017-09-01T02:42:38.338Z,17.19
2017-09-01T02:43:18.901Z,17.24
2017-09-01T02:43:59.471Z,17.26
2017-09-01T02:44:40.039Z,17.24
2017-09-01T02:45:20.625Z,17.22
2017-09-01T02:46:01.195Z,17.24
2017-09-01T02:46:41.773Z,17.23
2017-09-01T02:47:22.338Z,17.23
2017-09-01T02:48:02.932Z,17.2
2017-09-01T02:48:43.492Z,17.24
2017-09-01T02:49:24.067Z,17.26
2017-09-01T02:50:04.659Z,17.15
2017-09-01T02:50:45.236Z,17.23
2017-09-01T02:51:25.806Z,17.14
2017-09-01T02:52:06.384Z,17.14
2017-09-01T02:52:46.963Z,17.11
2017-09-01T02:53:27.548Z,17.11
2017-09-01T02:54:08.110Z,17.12
2017-09-01T02:54:48.687Z,17.2
2017-09-01T02:55:29.253Z,17.08
2017-09-01T02:56:09.818Z,17.14
2017-09-01T02:56:50.396Z,17.15
2017-09-01T02:57:30.969Z,17.11
2017-09-01T02:58:11.528Z,17.14
2017-09-01T02:58:52.091Z,17.11
2017-09-01T02:59:32.676Z,17.09
2017-09-01T03:00:13.253Z,17.06
2017-09-01T03:00:53.842Z,17.09
2017-09-01T03:01:34.427Z,17.09
2017-09-01T03:02:15.008Z,17.16
2017-09-01T03:02:55.583Z,17.16
2017-09-01T03:03:36.148Z,17.14
2017-09-01T03:04:16.738Z,17.19
2017-09-01T03:04:57.319Z,17.08
2017-09-01T03:05:37.881Z,17.14
2017-09-01T03:06:18.461Z,17.01
2017-09-01T03:06:59.071Z,17.08
2017-09-01T03:07:39.635Z,17.02
2017-09-01T03:08:20.210Z,17.14
2017-09-01T03:09:00.803Z,17.08
2017-09-01T03:09:41.369Z,17.14
2017-09-01T03:10:21.961Z,17.05
2017-09-01T03:11:02.553Z,17.04
2017-09-01T03:11:43.127Z,17.12
2017-09-01T03:12:23.690Z,17.04
2017-09-01T03:13:04.262Z,17.01
2017-09-01T03:13:44.848Z,16.99
2017-09-01T03:14:25.414Z,17.05
2017-09-01T03:15:05.988Z,17.04
2017-09-01T03:15:46.570Z,17.01
2017-09-01T03:16:27.137Z,16.99
2017-09-01T03:17:07.716Z,17.02
2017-09-01T03:17:48.282Z,17.01
2017-09-01T03:18:28.857Z,16.99
2017-09-01T03:19:09.454Z,17.01
2017-09-01T03:19:50.062Z,16.99
2017-09-01T03:20:30.601Z,16.99
2017-09-01T03:21:11.176Z,16.94
2017-09-01T03:21:51.758Z,16.97
2017-09-01T03:22:32.358Z,16.93
2017-09-01T03:23:12.955Z,16.94
2017-09-01T03:23:53.513Z,16.93
2017-09-01T03:24:34.090Z,16.94
2017-09-01T03:25:14.654Z,16.89
2017-09-01T03:25:55.217Z,16.9
2017-09-01T03:26:35.782Z,16.93
2017-09-01T03:27:16.373Z,16.9
2017-09-01T03:27:56.968Z,16.89
2017-09-01T03:28:37.537Z,16.9
2017-09-01T03:29:18.107Z,16.9
2017-09-01T03:29:58.688Z,16.86
2017-09-01T03:30:39.258Z,16.84
2017-09-01T03:31:19.829Z,16.84
2017-09-01T03:32:00.416Z,16.83
2017-09-01T03:32:41.030Z,16.91
2017-09-01T03:33:21.577Z,16.76
2017-09-01T03:34:02.146Z,16.75
2017-09-01T03:34:42.718Z,16.68
2017-09-01T03:35:23.317Z,16.76
2017-09-01T03:36:03.892Z,16.68
2017-09-01T03:36:44.514Z,16.69
2017-09-01T03:37:25.083Z,16.69
2017-09-01T03:38:05.651Z,16.72
2017-09-01T03:38:46.221Z,16.61
2017-09-01T03:39:26.804Z,16.58
2017-09-01T03:40:07.375Z,16.61
2017-09-01T03:40:47.956Z,16.58
2017-09-01T03:41:28.532Z,16.61
2017-09-01T03:42:09.110Z,16.64
2017-09-01T03:42:49.674Z,16.65
2017-09-01T03:43:30.245Z,16.61
2017-09-01T03:44:10.813Z,16.6
2017-09-01T03:44:51.394Z,16.71
2017-09-01T03:45:31.981Z,16.64
2017-09-01T03:46:12.554Z,16.68
2017-09-01T03:46:53.120Z,16.58
2017-09-01T03:47:33.703Z,16.58
2017-09-01T03:48:14.310Z,16.68
2017-09-01T03:48:54.888Z,16.65
2017-09-01T03:49:35.470Z,16.75
2017-09-01T03:50:16.036Z,16.74
2017-09-01T03:50:56.611Z,16.69
2017-09-01T03:51:37.179Z,16.68
2017-09-01T03:52:17.755Z,16.65
2017-09-01T03:52:58.319Z,16.61
2017-09-01T03:53:38.896Z,16.6
2017-09-01T03:54:19.468Z,16.61
2017-09-01T03:55:00.056Z,16.65
2017-09-01T03:55:40.617Z,16.65
2017-09-01T03:56:21.196Z,16.61
2017-09-01T03:57:01.766Z,16.71
2017-09-01T03:57:42.337Z,16.57
2017-09-01T03:58:22.964Z,16.65
2017-09-01T03:59:03.541Z,16.65
2017-09-01T03:59:44.121Z,16.72
2017-09-01T04:00:24.710Z,16.58
2017-09-01T04:01:05.305Z,16.61
2017-09-01T04:01:45.884Z,16.71
2017-09-01T04:02:26.458Z,16.69
2017-09-01T04:03:07.026Z,16.56
2017-09-01T04:03:47.592Z,16.65
2017-09-01T04:04:28.161Z,16.61
2017-09-01T04:05:08.742Z,16.66
2017-09-01T04:05:49.321Z,16.65
2017-09-01T04:06:29.897Z,16.58
2017-09-01T04:07:10.461Z,16.65
2017-09-01T04:07:51.058Z,16.65
2017-09-01T04:08:31.630Z,16.58
2017-09-01T04:09:12.226Z,16.64
2017-09-01T04:09:52.772Z,16.6
2017-09-01T04:10:33.341Z,16.6
2017-09-01T04:11:13.916Z,16.61
2017-09-01T04:11:54.488Z,16.65
2017-09-01T04:12:35.062Z,16.61
2017-09-01T04:13:15.637Z,16.6
2017-09-01T04:13:56.216Z,16.58
2017-09-01T04:14:36.784Z,16.58
2017-09-01T04:15:17.368Z,16.68
2017-09-01T04:15:57.942Z,16.64
2017-09-01T04:16:38.498Z,16.64
2017-09-01T04:17:19.051Z,16.66
2017-09-01T04:17:59.636Z,16.64
2017-09-01T04:18:40.198Z,16.61
2017-09-01T04:19:20.775Z,16.61
2017-09-01T04:20:01.351Z,16.61
2017-09-01T04:20:41.935Z,16.6
2017-09-01T04:21:22.500Z,16.61
2017-09-01T04:22:03.073Z,16.61
2017-09-01T04:22:43.641Z,16.57
2017-09-01T04:23:24.198Z,16.6
2017-09-01T04:24:04.775Z,16.61
2017-09-01T04:24:45.351Z,16.61
2017-09-01T04:25:25.922Z,16.54
2017-09-01T04:26:06.514Z,16.65
2017-09-01T04:26:47.088Z,16.57
2017-09-01T04:27:27.679Z,16.56
2017-09-01T04:28:08.247Z,16.64
2017-09-01T04:28:48.818Z,16.64
2017-09-01T04:29:29.430Z,16.61
2017-09-01T04:30:09.990Z,16.66
2017-09-01T04:30:50.560Z,16.69
2017-09-01T04:31:31.122Z,16.58
2017-09-01T04:32:11.686Z,16.6
2017-09-01T04:32:52.260Z,16.64
2017-09-01T04:33:32.854Z,16.58
2017-09-01T04:34:13.446Z,16.61
2017-09-01T04:34:54.057Z,16.6
2017-09-01T04:35:34.634Z,16.6
2017-09-01T04:36:15.202Z,16.65
2017-09-01T04:36:55.772Z,16.61
2017-09-01T04:37:36.356Z,16.61
2017-09-01T04:38:16.919Z,16.58
2017-09-01T04:38:57.487Z,16.6
2017-09-01T04:39:38.059Z,16.69
2017-09-01T04:40:18.634Z,16.64
2017-09-01T04:40:59.198Z,16.58
2017-09-01T04:41:39.819Z,16.58
2017-09-01T04:42:20.391Z,16.54
2017-09-01T04:43:00.957Z,16.56
2017-09-01T04:43:41.540Z,16.54
2017-09-01T04:44:22.125Z,16.51
2017-09-01T04:45:02.752Z,16.56
2017-09-01T04:45:43.327Z,16.57
2017-09-01T04:46:23.894Z,16.57
2017-09-01T04:47:04.475Z,16.54
2017-09-01T04:47:45.031Z,16.56
2017-09-01T04:48:25.610Z,16.6
2017-09-01T04:49:06.177Z,16.57
2017-09-01T04:49:46.750Z,16.57
2017-09-01T04:50:27.316Z,16.51
2017-09-01T04:51:07.944Z,16.64
2017-09-01T04:51:48.503Z,16.58
2017-09-01T04:52:29.070Z,16.57
2017-09-01T04:53:09.648Z,16.57
2017-09-01T04:53:50.205Z,16.54
2017-09-01T04:54:30.778Z,16.58
2017-09-01T04:55:11.352Z,16.53
2017-09-01T04:55:51.938Z,16.56
2017-09-01T04:56:32.511Z,16.56
2017-09-01T04:57:13.092Z,16.56
2017-09-01T04:57:53.669Z,16.54
2017-09-01T04:58:34.239Z,16.56
2017-09-01T04:59:14.806Z,16.53
2017-09-01T04:59:55.380Z,16.57
2017-09-01T05:00:35.942Z,16.54
2017-09-01T05:01:16.538Z,16.56
2017-09-01T05:01:57.122Z,16.6
2017-09-01T05:02:37.685Z,16.58
2017-09-01T05:03:18.263Z,16.61
2017-09-01T05:03:58.846Z,16.66
2017-09-01T05:04:39.405Z,16.58
2017-09-01T05:05:19.967Z,16.57
2017-09-01T05:06:00.553Z,16.65
2017-09-01T05:06:41.113Z,16.61
2017-09-01T05:07:21.689Z,16.65
2017-09-01T05:08:02.284Z,16.64
2017-09-01T05:08:42.858Z,16.68
2017-09-01T05:09:23.429Z,16.66
2017-09-01T05:10:03.999Z,16.61
2017-09-01T05:10:44.593Z,16.66
2017-09-01T05:11:25.182Z,16.64
2017-09-01T05:12:05.782Z,16.65
2017-09-01T05:12:46.360Z,16.68
2017-09-01T05:13:26.927Z,16.72
2017-09-01T05:14:07.509Z,16.74
2017-09-01T05:14:48.093Z,16.68
2017-09-01T05:15:28.672Z,16.72
2017-09-01T05:16:09.277Z,16.72
2017-09-01T05:16:49.858Z,16.71
2017-09-01T05:17:30.439Z,16.66
2017-09-01T05:18:11.018Z,16.61
2017-09-01T05:18:51.587Z,16.61
2017-09-01T05:19:32.150Z,16.75
2017-09-01T05:20:12.736Z,16.68
2017-09-01T05:20:53.394Z,16.68
2017-09-01T05:21:33.972Z,16.69
2017-09-01T05:22:14.577Z,16.74
2017-09-01T05:22:55.145Z,16.75
2017-09-01T05:23:35.720Z,16.79
2017-09-01T05:24:16.314Z,16.71
2017-09-01T05:24:56.887Z,16.69
2017-09-01T05:25:37.471Z,16.71
2017-09-01T05:26:18.064Z,16.68
2017-09-01T05:26:58.639Z,16.71
2017-09-01T05:27:39.236Z,16.78
2017-09-01T05:28:19.804Z,16.71
2017-09-01T05:29:00.381Z,16.75
2017-09-01T05:29:40.987Z,16.65
2017-09-01T05:30:21.572Z,16.78
2017-09-01T05:31:02.149Z,16.75
2017-09-01T05:31:42.717Z,16.76
2017-09-01T05:32:23.289Z,16.79
2017-09-01T05:33:03.874Z,16.68
2017-09-01T05:33:44.449Z,16.68
2017-09-01T05:34:25.040Z,16.65
2017-09-01T05:35:05.641Z,16.66
2017-09-01T05:35:46.201Z,16.74
2017-09-01T05:36:26.845Z,16.61
2017-09-01T05:37:07.411Z,16.6
2017-09-01T05:37:48.000Z,16.66
2017-09-01T05:38:28.570Z,16.72
2017-09-01T05:39:09.137Z,16.68
2017-09-01T05:39:49.710Z,16.69
2017-09-01T05:40:30.281Z,16.66
2017-09-01T05:41:10.848Z,16.68
2017-09-01T05:41:51.418Z,16.69
2017-09-01T05:42:31.994Z,16.69
2017-09-01T05:43:12.567Z,16.71
2017-09-01T05:43:53.140Z,16.65
2017-09-01T05:44:33.710Z,16.65
2017-09-01T05:45:14.299Z,16.72
2017-09-01T05:45:54.988Z,16.78
2017-09-01T05:46:35.569Z,16.71
2017-09-01T05:47:16.182Z,16.78
2017-09-01T05:47:56.742Z,16.71
2017-09-01T05:48:37.318Z,16.79
2017-09-01T05:49:17.910Z,16.79
2017-09-01T05:49:58.481Z,16.74
2017-09-01T05:50:39.077Z,16.78
2017-09-01T05:51:19.644Z,16.75
2017-09-01T05:52:00.224Z,16.72
2017-09-01T05:52:40.794Z,16.87
2017-09-01T05:53:21.375Z,16.76
2017-09-01T05:54:01.940Z,16.76
2017-09-01T05:54:42.537Z,16.86
2017-09-01T05:55:23.107Z,16.84
2017-09-01T05:56:03.689Z,16.83
2017-09-01T05:56:44.278Z,16.87
2017-09-01T05:57:24.876Z,16.87
2017-09-01T05:58:05.432Z,16.89
2017-09-01T05:58:46.046Z,16.9
2017-09-01T05:59:26.621Z,16.9
2017-09-01T06:00:07.212Z,16.91
2017-09-01T06:00:47.772Z,16.89
2017-09-01T06:01:28.367Z,16.96
2017-09-01T06:02:08.943Z,16.93
2017-09-01T06:02:49.508Z,16.97
2017-09-01T06:03:30.075Z,16.94
2017-09-01T06:04:10.655Z,16.99
2017-09-01T06:04:51.252Z,16.96
2017-09-01T06:05:31.833Z,16.97
2017-09-01T06:06:12.427Z,16.96
2017-09-01T06:06:53.000Z,17.01
2017-09-01T06:07:33.590Z,16.97
2017-09-01T06:08:14.156Z,16.99
2017-09-01T06:08:54.734Z,16.91
2017-09-01T06:09:35.301Z,17.01
2017-09-01T06:10:15.875Z,16.96
2017-09-01T06:10:56.466Z,16.91
2017-09-01T06:11:37.039Z,16.97
2017-09-01T06:12:17.608Z,16.9
2017-09-01T06:12:58.178Z,16.86
2017-09-01T06:13:38.747Z,16.97
2017-09-01T06:14:19.316Z,16.89
2017-09-01T06:14:59.880Z,16.9
2017-09-01T06:15:40.449Z,16.93
2017-09-01T06:16:21.017Z,16.9
2017-09-01T06:17:01.588Z,16.93
2017-09-01T06:17:42.173Z,16.91
2017-09-01T06:18:22.744Z,16.9
2017-09-01T06:19:03.322Z,16.93
2017-09-01T06:19:43.891Z,16.94
2017-09-01T06:20:24.461Z,16.93
2017-09-01T06:21:05.055Z,16.9
2017-09-01T06:21:45.661Z,16.97
2017-09-01T06:22:26.237Z,16.96
2017-09-01T06:23:06.816Z,16.96
2017-09-01T06:23:47.399Z,17.08
2017-09-01T06:24:27.965Z,17.05
2017-09-01T06:25:08.537Z,17.02
2017-09-01T06:25:49.111Z,16.96
2017-09-01T06:26:29.678Z,17.09
2017-09-01T06:27:10.247Z,17.16
2017-09-01T06:27:50.811Z,17.02
2017-09-01T06:28:31.389Z,17.08
2017-09-01T06:29:11.963Z,17.02
2017-09-01T06:29:52.534Z,17.09
2017-09-01T06:30:33.121Z,17.16
2017-09-01T06:31:13.715Z,17.11
2017-09-01T06:31:54.314Z,17.12
2017-09-01T06:32:34.891Z,17.12
2017-09-01T06:33:15.461Z,17.06
2017-09-01T06:33:56.039Z,17.14
2017-09-01T06:34:36.608Z,17.12
2017-09-01T06:35:17.186Z,17.14
2017-09-01T06:35:57.753Z,17.06
2017-09-01T06:36:38.315Z,17.11
2017-09-01T06:37:18.902Z,17.26
2017-09-01T06:37:59.487Z,17.23
2017-09-01T06:38:40.070Z,17.22
2017-09-01T06:39:20.643Z,17.3
2017-09-01T06:40:01.203Z,17.36
2017-09-01T06:40:41.789Z,17.33
2017-09-01T06:41:22.359Z,17.36
2017-09-01T06:42:02.938Z,17.33
2017-09-01T06:42:43.500Z,17.36
2017-09-01T06:43:24.068Z,17.44
2017-09-01T06:44:04.644Z,17.42
2017-09-01T06:44:45.230Z,17.38
2017-09-01T06:45:25.808Z,17.36
2017-09-01T06:46:06.376Z,17.38
2017-09-01T06:46:46.967Z,17.41
2017-09-01T06:47:27.543Z,17.46
2017-09-01T06:48:08.104Z,17.46
2017-09-01T06:48:48.667Z,17.48
2017-09-01T06:49:29.255Z,17.57
2017-09-01T06:50:09.834Z,17.59
2017-09-01T06:50:50.404Z,17.57
2017-09-01T06:51:30.991Z,17.67
2017-09-01T06:52:11.557Z,17.79
2017-09-01T06:52:52.134Z,17.76
2017-09-01T06:53:32.722Z,17.85
2017-09-01T06:54:13.291Z,17.86
2017-09-01T06:54:53.862Z,17.8
2017-09-01T06:55:34.448Z,17.86
2017-09-01T06:56:15.091Z,17.94
2017-09-01T06:56:55.688Z,17.98
2017-09-01T06:57:36.273Z,18.05
2017-09-01T06:58:16.845Z,18.19
2017-09-01T06:58:57.416Z,18.29
2017-09-01T06:59:37.998Z,18.43
2017-09-01T07:00:18.573Z,18.49
2017-09-01T07:00:59.142Z,18.6
2017-09-01T07:01:39.706Z,18.65
2017-09-01T07:02:20.273Z,18.73
2017-09-01T07:03:00.835Z,18.71
2017-09-01T07:03:41.411Z,18.78
2017-09-01T07:04:22.001Z,18.78
2017-09-01T07:05:02.583Z,18.86
2017-09-01T07:05:43.136Z,18.8
2017-09-01T07:06:23.709Z,18.84
2017-09-01T07:07:04.289Z,18.84
2017-09-01T07:07:44.859Z,18.92
2017-09-01T07:08:25.443Z,18.95
2017-09-01T07:09:06.012Z,18.86
2017-09-01T07:09:46.582Z,18.88
2017-09-01T07:10:27.172Z,18.9
2017-09-01T07:11:07.742Z,18.95
2017-09-01T07:11:48.298Z,18.95
2017-09-01T07:12:28.875Z,19
2017-09-01T07:13:09.464Z,19.04
2017-09-01T07:13:50.050Z,19.07
2017-09-01T07:14:30.630Z,19.14
2017-09-01T07:15:11.214Z,19.07
2017-09-01T07:15:51.786Z,19.04
2017-09-01T07:16:32.360Z,19
2017-09-01T07:17:12.947Z,19.08
2017-09-01T07:17:53.553Z,19.02
2017-09-01T07:18:34.157Z,19.04
2017-09-01T07:19:14.744Z,19.02
2017-09-01T07:19:55.315Z,19.12
2017-09-01T07:20:35.889Z,19.18
2017-09-01T07:21:16.478Z,19.21
2017-09-01T07:21:57.051Z,19.27
2017-09-01T07:22:37.644Z,19.24
2017-09-01T07:23:18.240Z,19.34
2017-09-01T07:23:58.808Z,19.41
2017-09-01T07:24:39.407Z,19.37
2017-09-01T07:25:19.993Z,19.31
2017-09-01T07:26:00.559Z,19.39
2017-09-01T07:26:41.138Z,19.49
2017-09-01T07:27:21.721Z,19.51
2017-09-01T07:28:02.293Z,19.49
2017-09-01T07:28:42.868Z,19.58
2017-09-01T07:29:23.497Z,19.59
2017-09-01T07:30:04.085Z,19.76
2017-09-01T07:30:44.662Z,19.85
2017-09-01T07:31:25.251Z,19.86
2017-09-01T07:32:05.854Z,19.95
2017-09-01T07:32:46.448Z,19.94
2017-09-01T07:33:27.025Z,20.11
2017-09-01T07:34:07.608Z,20.29
2017-09-01T07:34:48.178Z,20.4
2017-09-01T07:35:28.770Z,20.51
2017-09-01T07:36:09.354Z,20.55
2017-09-01T07:36:50.035Z,20.52
2017-09-01T07:37:30.647Z,20.52
2017-09-01T07:38:11.224Z,20.51
2017-09-01T07:38:51.829Z,20.44
2017-09-01T07:39:32.464Z,20.39
2017-09-01T07:40:13.035Z,20.22
2017-09-01T07:40:53.619Z,20.13
2017-09-01T07:41:34.204Z,20.09
2017-09-01T07:42:14.808Z,20.03
2017-09-01T07:42:55.394Z,19.88
2017-09-01T07:43:35.976Z,19.73
2017-09-01T07:44:16.585Z,19.66
2017-09-01T07:44:57.184Z,19.58
2017-09-01T07:45:37.754Z,19.47
2017-09-01T07:46:18.334Z,19.44
2017-09-01T07:46:58.970Z,19.4
2017-09-01T07:47:39.562Z,19.33
2017-09-01T07:48:20.163Z,19.36
2017-09-01T07:49:00.776Z,19.41
2017-09-01T07:49:41.360Z,19.31
2017-09-01T07:50:22.011Z,19.31
2017-09-01T07:51:02.539Z,19.37
2017-09-01T07:51:43.145Z,19.52
2017-09-01T07:52:23.728Z,19.51
2017-09-01T07:53:04.311Z,19.63
2017-09-01T07:53:44.998Z,19.64
2017-09-01T07:54:25.570Z,19.73
2017-09-01T07:55:06.154Z,19.76
2017-09-01T07:55:46.719Z,19.88
2017-09-01T07:56:27.299Z,19.92
2017-09-01T07:57:07.879Z,19.89
2017-09-01T07:57:48.450Z,19.96
2017-09-01T07:58:29.037Z,20.03
2017-09-01T07:59:09.605Z,20
2017-09-01T07:59:50.193Z,19.86
2017-09-01T08:00:30.816Z,19.92
2017-09-01T08:01:11.414Z,19.94
2017-09-01T08:01:51.993Z,19.85
2017-09-01T08:02:32.576Z,19.81
2017-09-01T08:03:13.155Z,19.73
2017-09-01T08:03:53.767Z,19.74
2017-09-01T08:04:34.336Z,19.7
2017-09-01T08:05:14.945Z,19.66
2017-09-01T08:05:55.532Z,19.63
2017-09-01T08:06:36.116Z,19.69
2017-09-01T08:07:16.719Z,19.74
2017-09-01T08:07:57.328Z,19.66
2017-09-01T08:08:37.907Z,19.62
2017-09-01T08:09:18.482Z,19.69
2017-09-01T08:09:59.067Z,19.7
2017-09-01T08:10:39.636Z,19.67
2017-09-01T08:11:20.267Z,19.71
2017-09-01T08:12:00.844Z,19.73
2017-09-01T08:12:41.422Z,19.89
2017-09-01T08:13:22.011Z,19.92
2017-09-01T08:14:02.590Z,20.02
2017-09-01T08:14:43.175Z,20.11
2017-09-01T08:15:23.762Z,20.09
2017-09-01T08:16:04.336Z,20.04
2017-09-01T08:16:44.901Z,20
2017-09-01T08:17:25.482Z,20.02
2017-09-01T08:18:06.053Z,19.91
2017-09-01T08:18:46.646Z,20.02
2017-09-01T08:19:27.299Z,19.92
2017-09-01T08:20:07.894Z,19.95
2017-09-01T08:20:48.506Z,19.96
2017-09-01T08:21:29.127Z,19.89
2017-09-01T08:22:09.695Z,19.91
2017-09-01T08:22:50.290Z,19.99
2017-09-01T08:23:30.885Z,20.03
2017-09-01T08:24:11.462Z,20.04
2017-09-01T08:24:52.039Z,19.96
2017-09-01T08:25:32.663Z,19.94
2017-09-01T08:26:13.238Z,20.02
2017-09-01T08:26:53.800Z,19.91
2017-09-01T08:27:34.386Z,20.07
2017-09-01T08:28:14.965Z,20.09
2017-09-01T08:28:55.550Z,20.04
2017-09-01T08:29:36.124Z,20.1
2017-09-01T08:30:16.709Z,20
2017-09-01T08:30:57.286Z,20.1
2017-09-01T08:31:37.897Z,20.03
2017-09-01T08:32:18.473Z,20.04
2017-09-01T08:32:59.052Z,20.09
2017-09-01T08:33:39.685Z,20.11
2017-09-01T08:34:20.263Z,20.13
2017-09-01T08:35:00.838Z,20.29
2017-09-01T08:35:41.423Z,20.18
2017-09-01T08:36:21.998Z,20.31
2017-09-01T08:37:02.595Z,20.21
2017-09-01T08:37:43.199Z,20.22
2017-09-01T08:38:23.805Z,20.32
2017-09-01T08:39:04.386Z,20.29
2017-09-01T08:39:44.943Z,20.39
2017-09-01T08:40:25.517Z,20.44
2017-09-01T08:41:06.115Z,20.41
2017-09-01T08:41:46.700Z,20.37
2017-09-01T08:42:27.281Z,20.52
2017-09-01T08:43:07.873Z,20.48
2017-09-01T08:43:48.446Z,20.41
2017-09-01T08:44:29.032Z,20.41